SBGLSBRJ

Guest
Details From SBGL - Galeao Antonio Carlos Jombim
To SBRJ - Santos-Dumont
Flight Number -
Tags generated
Created
Modified
Stats Distance 8 nm / 14 km
Max Altitude 0 ft / 0 m
Waypoints 2
Social Downloads 1
Likes 0
Share VATSIM

Download

Looking for another format? Having issues loading an existing format? Contact us
Advertisement - Login to hide

Notes

Basic altitude profile: - Ascent Rate: 2500ft/min - Ascent Speed: 250kts - Cruise Altitude: 35000ft - Cruise Speed: 420kts - Descent Rate: 1500ft/min - Descent Speed: 250kts Options: - Use NATs: yes - Use PACOTS: yes - Use low airways: yes - Use high airways: yes

Route

SBGL SBRJ

ID Type Via Altitude Latitude Longitude Leg Dist Tot Dist Heading (true) Name
O SBGL APT - 0 ft / 0 m -22.80894˚ -43.24368˚ - 0 nm - Galeao Antonio Carlos Jombim
O SBRJ APT - 0 ft / 0 m -22.91046˚ -43.16313˚ 7 nm 7 nm 144° / 144° Santos-Dumont

Altitude Profile

Advertisement - Login to hide

SBGL

Details ICAO SBGL (GIG)
Name Galeao Antonio Carlos Jombim
Region Brazil
Timezone America/Sao_Paulo (UTC-3.0)
Stats Elevation 28 ft / 9 m (AMSL)
Location -22.808938° -43.243681°
Runways 2
Magnetic Variation 22.812° W

METAR

Not found

TAF

TAF SBGL 272030Z 2800/2906 11005KT 9999 FEW020TN18/2809Z TX25/2817Z BECMG 2806/2809 03005KT PROB40 2809/2812 4000 BR SCT010 BECMG 2815/2818 14010KT BECMG 2900/2902 08005KT RMK PHI

Decode

Departure Runways

ID Width Length Bearing (true) Bearing (mag) Surface Threshold Offset Overrun Length
10 148 ft / 45 m 13,128 ft / 4,001 m 74.39° 97.20° Concrete 0 ft / 0 m 175 ft / 53 m
15 154 ft / 47 m 10,418 ft / 3,175 m 125.78° 148.59° Asphalt 0 ft / 0 m 185 ft / 56 m
28 148 ft / 45 m 13,128 ft / 4,001 m 254.38° 277.19° Concrete 0 ft / 0 m 175 ft / 53 m
33 154 ft / 47 m 10,418 ft / 3,175 m 305.78° 328.59° Asphalt 0 ft / 0 m 185 ft / 56 m

SBRJ

Details ICAO SBRJ (SDU)
Name Santos-Dumont
Region Brazil
Timezone Unknown (UTC+0.0)
Stats Elevation 11 ft / 3 m (AMSL)
Location -22.910460° -43.163133°
Runways 2
Magnetic Variation 22.826° W

METAR

Not found

TAF

TAF SBRJ 272030Z 2800/2812 15005KT 9999 FEW020TN20/2809Z TX23/2812Z BECMG 2802/2804 06005KT BECMG 2809/2811 34005KT PROB40 2809/2812 4000 BR SCT010 RMK PHI

Decode

Destination Runways

ID Width Length Bearing (true) Bearing (mag) Surface Threshold Offset Overrun Length
02L 98 ft / 30 m 4,154 ft / 1,266 m 358.02° 20.85° Asphalt 0 ft / 0 m 80 ft / 24 m
02R 138 ft / 42 m 4,361 ft / 1,329 m 358.01° 20.84° Asphalt 0 ft / 0 m 80 ft / 24 m
20L 138 ft / 42 m 4,361 ft / 1,329 m 178.01° 200.84° Asphalt 0 ft / 0 m 80 ft / 24 m
20R 98 ft / 30 m 4,154 ft / 1,266 m 178.02° 200.85° Asphalt 0 ft / 0 m 95 ft / 29 m

Approach Navaids

Runway Type Ident Frequency Range Bearing (true) Bearing (mag) Slope Elevation
20L Localiser IRJ 111.10 MHz 18 nm / 33 km 172.42° 195.25° - 11 ft / 3 m (AMSL)

Popular Alternatives